sensor_id;sensor_type;location;lat;lon;timestamp;pressure;altitude;pressure_sealevel;temperature;humidity
30897;BME280;64229;52.246;21.054;2022-12-07T00:01:30;99850.94;;;1.76;100.00
30897;BME280;64229;52.246;21.054;2022-12-07T00:03:59;99831.38;;;1.47;100.00
30897;BME280;64229;52.246;21.054;2022-12-07T00:06:38;99842.28;;;1.50;100.00
30897;BME280;64229;52.246;21.054;2022-12-07T00:09:06;99838.72;;;1.38;100.00
30897;BME280;64229;52.246;21.054;2022-12-07T00:11:32;99833.06;;;1.59;100.00
30897;BME280;64229;52.246;21.054;2022-12-07T00:14:04;99834.28;;;1.82;100.00
30897;BME280;64229;52.246;21.054;2022-12-07T00:16:32;99829.38;;;1.85;100.00
30897;BME280;64229;52.246;21.054;2022-12-07T00:18:57;99821.94;;;1.82;100.00
30897;BME280;64229;52.246;21.054;2022-12-07T00:21:26;99834.22;;;1.88;100.00
30897;BME280;64229;52.246;21.054;2022-12-07T00:23:53;99832.38;;;1.89;100.00
30897;BME280;64229;52.246;21.054;2022-12-07T00:26:23;99830.13;;;1.92;100.00
30897;BME280;64229;52.246;21.054;2022-12-07T00:28:51;99810.28;;;1.90;100.00
30897;BME280;64229;52.246;21.054;2022-12-07T00:31:19;99809.78;;;1.99;100.00
30897;BME280;64229;52.246;21.054;2022-12-07T00:33:45;99823.63;;;1.95;100.00
30897;BME280;64229;52.246;21.054;2022-12-07T00:36:14;99825.44;;;1.76;100.00
30897;BME280;64229;52.246;21.054;2022-12-07T00:38:40;99821.78;;;1.77;100.00
30897;BME280;64229;52.246;21.054;2022-12-07T00:41:14;99816.81;;;1.87;100.00
30897;BME280;64229;52.246;21.054;2022-12-07T00:43:41;99817.97;;;1.91;100.00
30897;BME280;64229;52.246;21.054;2022-12-07T00:46:07;99818.81;;;1.92;100.00
30897;BME280;64229;52.246;21.054;2022-12-07T00:48:33;99811.31;;;1.89;100.00
30897;BME280;64229;52.246;21.054;2022-12-07T00:50:58;99820.09;;;2.01;100.00
30897;BME280;64229;52.246;21.054;2022-12-07T00:53:24;99815.78;;;2.25;100.00
30897;BME280;64229;52.246;21.054;2022-12-07T00:55:50;99816.59;;;2.25;100.00
30897;BME280;64229;52.246;21.054;2022-12-07T00:58:15;99810.28;;;2.26;100.00
30897;BME280;64229;52.246;21.054;2022-12-07T01:00:42;99822.19;;;2.29;100.00
30897;BME280;64229;52.246;21.054;2022-12-07T01:03:09;99815.41;;;2.21;100.00
30897;BME280;64229;52.246;21.054;2022-12-07T01:05:35;99810.19;;;2.33;100.00
30897;BME280;64229;52.246;21.054;2022-12-07T01:08:01;99802.75;;;2.30;100.00
30897;BME280;64229;52.246;21.054;2022-12-07T01:10:26;99795.13;;;2.40;100.00
30897;BME280;64229;52.246;21.054;2022-12-07T01:12:52;99805.66;;;2.40;100.00
30897;BME280;64229;52.246;21.054;2022-12-07T01:15:18;99782.69;;;2.29;100.00
30897;BME280;64229;52.246;21.054;2022-12-07T01:17:43;99805.13;;;2.50;100.00
30897;BME280;64229;52.246;21.054;2022-12-07T01:20:09;99811.91;;;2.57;100.00
30897;BME280;64229;52.246;21.054;2022-12-07T01:22:37;99804.00;;;2.57;100.00
30897;BME280;64229;52.246;21.054;2022-12-07T01:25:03;99799.09;;;2.61;100.00
30897;BME280;64229;52.246;21.054;2022-12-07T01:27:28;99800.13;;;2.60;100.00
30897;BME280;64229;52.246;21.054;2022-12-07T01:29:53;99810.88;;;2.58;100.00
30897;BME280;64229;52.246;21.054;2022-12-07T01:32:19;99816.22;;;2.52;100.00
30897;BME280;64229;52.246;21.054;2022-12-07T01:34:44;99799.53;;;2.28;100.00
30897;BME280;64229;52.246;21.054;2022-12-07T01:37:09;99815.06;;;2.48;100.00
30897;BME280;64229;52.246;21.054;2022-12-07T01:39:35;99812.78;;;2.51;100.00
30897;BME280;64229;52.246;21.054;2022-12-07T01:42:00;99808.00;;;2.60;100.00
30897;BME280;64229;52.246;21.054;2022-12-07T01:44:28;99807.22;;;2.59;100.00
30897;BME280;64229;52.246;21.054;2022-12-07T01:47:02;99798.84;;;2.63;100.00
30897;BME280;64229;52.246;21.054;2022-12-07T01:49:37;99804.94;;;2.63;100.00
30897;BME280;64229;52.246;21.054;2022-12-07T01:52:23;99797.34;;;2.55;100.00
30897;BME280;64229;52.246;21.054;2022-12-07T01:54:51;99799.41;;;2.53;100.00
30897;BME280;64229;52.246;21.054;2022-12-07T01:57:18;99801.44;;;2.51;100.00
30897;BME280;64229;52.246;21.054;2022-12-07T01:59:45;99796.53;;;2.54;100.00
30897;BME280;64229;52.246;21.054;2022-12-07T02:02:21;99801.72;;;2.61;100.00
30897;BME280;64229;52.246;21.054;2022-12-07T02:04:48;99791.09;;;2.68;100.00
30897;BME280;64229;52.246;21.054;2022-12-07T02:07:14;99790.28;;;2.67;100.00
30897;BME280;64229;52.246;21.054;2022-12-07T02:09:40;99795.31;;;2.57;100.00
30897;BME280;64229;52.246;21.054;2022-12-07T02:12:06;99783.16;;;2.56;100.00
30897;BME280;64229;52.246;21.054;2022-12-07T02:14:31;99793.78;;;2.49;100.00
30897;BME280;64229;52.246;21.054;2022-12-07T02:22:24;99794.47;;;2.45;100.00
30897;BME280;64229;52.246;21.054;2022-12-07T02:25:13;99790.47;;;2.54;100.00
30897;BME280;64229;52.246;21.054;2022-12-07T02:30:17;99782.13;;;2.57;100.00
30897;BME280;64229;52.246;21.054;2022-12-07T02:32:58;99768.13;;;2.45;100.00
30897;BME280;64229;52.246;21.054;2022-12-07T02:35:44;99776.59;;;2.47;100.00
30897;BME280;64229;52.246;21.054;2022-12-07T02:38:20;99785.19;;;2.54;100.00
30897;BME280;64229;52.246;21.054;2022-12-07T02:41:05;99770.94;;;2.43;100.00
30897;BME280;64229;52.246;21.054;2022-12-07T02:43:36;99781.75;;;2.53;100.00
30897;BME280;64229;52.246;21.054;2022-12-07T02:46:10;99778.28;;;2.41;100.00
30897;BME280;64229;52.246;21.054;2022-12-07T02:48:39;99778.06;;;2.43;100.00
30897;BME280;64229;52.246;21.054;2022-12-07T02:51:05;99778.81;;;2.31;100.00
30897;BME280;64229;52.246;21.054;2022-12-07T02:53:37;99774.00;;;2.28;100.00
30897;BME280;64229;52.246;21.054;2022-12-07T02:56:22;99772.91;;;2.18;100.00
30897;BME280;64229;52.246;21.054;2022-12-07T03:06:53;99763.41;;;2.17;100.00
30897;BME280;64229;52.246;21.054;2022-12-07T03:09:32;99765.53;;;2.08;100.00
30897;BME280;64229;52.246;21.054;2022-12-07T03:13:09;99766.63;;;2.19;100.00
30897;BME280;64229;52.246;21.054;2022-12-07T03:15:29;99745.06;;;2.10;100.00
30897;BME280;64229;52.246;21.054;2022-12-07T03:17:52;99768.00;;;2.21;100.00
30897;BME280;64229;52.246;21.054;2022-12-07T03:20:23;99752.88;;;2.17;100.00
30897;BME280;64229;52.246;21.054;2022-12-07T03:22:51;99760.16;;;2.03;100.00
30897;BME280;64229;52.246;21.054;2022-12-07T03:25:18;99760.91;;;1.92;100.00
30897;BME280;64229;52.246;21.054;2022-12-07T03:27:53;99761.44;;;2.12;100.00
30897;BME280;64229;52.246;21.054;2022-12-07T03:30:24;99760.44;;;2.13;100.00
30897;BME280;64229;52.246;21.054;2022-12-07T03:36:20;99755.75;;;2.15;100.00
30897;BME280;64229;52.246;21.054;2022-12-07T03:38:22;99742.03;;;1.95;100.00
30897;BME280;64229;52.246;21.054;2022-12-07T03:43:20;99750.63;;;2.02;100.00
30897;BME280;64229;52.246;21.054;2022-12-07T03:46:01;99739.56;;;2.12;100.00
30897;BME280;64229;52.246;21.054;2022-12-07T03:53:44;99739.63;;;1.93;100.00
30897;BME280;64229;52.246;21.054;2022-12-07T03:56:11;99737.63;;;1.89;100.00
30897;BME280;64229;52.246;21.054;2022-12-07T03:58:38;99736.56;;;1.78;100.00
30897;BME280;64229;52.246;21.054;2022-12-07T04:01:04;99733.34;;;1.76;100.00
30897;BME280;64229;52.246;21.054;2022-12-07T04:03:29;99711.22;;;1.65;100.00
30897;BME280;64229;52.246;21.054;2022-12-07T04:05:55;99730.25;;;1.79;100.00
30897;BME280;64229;52.246;21.054;2022-12-07T04:08:20;99730.69;;;1.94;100.00
30897;BME280;64229;52.246;21.054;2022-12-07T04:10:46;99725.84;;;1.91;100.00
30897;BME280;64229;52.246;21.054;2022-12-07T04:13:11;99727.03;;;1.95;100.00
30897;BME280;64229;52.246;21.054;2022-12-07T04:15:36;99732.66;;;1.81;100.00
30897;BME280;64229;52.246;21.054;2022-12-07T04:18:02;99728.44;;;1.80;100.00
30897;BME280;64229;52.246;21.054;2022-12-07T04:20:27;99724.59;;;1.64;100.00
30897;BME280;64229;52.246;21.054;2022-12-07T04:22:52;99728.81;;;1.65;100.00
30897;BME280;64229;52.246;21.054;2022-12-07T04:25:18;99735.97;;;1.76;100.00
30897;BME280;64229;52.246;21.054;2022-12-07T04:27:43;99725.53;;;1.69;100.00
30897;BME280;64229;52.246;21.054;2022-12-07T04:30:09;99729.63;;;1.65;100.00
30897;BME280;64229;52.246;21.054;2022-12-07T04:32:34;99734.31;;;1.82;100.00
30897;BME280;64229;52.246;21.054;2022-12-07T04:34:59;99731.00;;;1.68;100.00
30897;BME280;64229;52.246;21.054;2022-12-07T04:37:25;99729.97;;;1.69;100.00
30897;BME280;64229;52.246;21.054;2022-12-07T04:39:50;99725.69;;;1.74;100.00
30897;BME280;64229;52.246;21.054;2022-12-07T04:42:15;99727.00;;;1.84;100.00
30897;BME280;64229;52.246;21.054;2022-12-07T04:44:41;99726.13;;;1.71;100.00
30897;BME280;64229;52.246;21.054;2022-12-07T04:47:06;99723.78;;;1.63;100.00
30897;BME280;64229;52.246;21.054;2022-12-07T04:49:32;99723.78;;;1.63;100.00
30897;BME280;64229;52.246;21.054;2022-12-07T04:51:57;99726.69;;;1.73;100.00
30897;BME280;64229;52.246;21.054;2022-12-07T04:54:22;99727.66;;;1.61;100.00
30897;BME280;64229;52.246;21.054;2022-12-07T04:56:48;99725.53;;;1.51;100.00
30897;BME280;64229;52.246;21.054;2022-12-07T04:59:15;99721.59;;;1.60;100.00
30897;BME280;64229;52.246;21.054;2022-12-07T05:01:40;99711.19;;;1.47;100.00
30897;BME280;64229;52.246;21.054;2022-12-07T05:04:06;99718.47;;;1.52;100.00
30897;BME280;64229;52.246;21.054;2022-12-07T05:06:32;99705.09;;;1.53;100.00
30897;BME280;64229;52.246;21.054;2022-12-07T05:08:57;99707.78;;;1.65;100.00
30897;BME280;64229;52.246;21.054;2022-12-07T05:11:22;99695.59;;;1.52;100.00
30897;BME280;64229;52.246;21.054;2022-12-07T05:14:04;99704.19;;;1.59;100.00
30897;BME280;64229;52.246;21.054;2022-12-07T05:16:30;99708.88;;;1.57;100.00
30897;BME280;64229;52.246;21.054;2022-12-07T05:18:56;99706.03;;;1.40;100.00
30897;BME280;64229;52.246;21.054;2022-12-07T05:21:22;99703.91;;;1.31;100.00
30897;BME280;64229;52.246;21.054;2022-12-07T05:23:47;99702.28;;;1.48;100.00
30897;BME280;64229;52.246;21.054;2022-12-07T05:26:12;99688.13;;;1.31;100.00
30897;BME280;64229;52.246;21.054;2022-12-07T05:28:38;99696.59;;;1.33;100.00
30897;BME280;64229;52.246;21.054;2022-12-07T05:31:03;99682.22;;;1.17;100.00
30897;BME280;64229;52.246;21.054;2022-12-07T05:33:29;99700.91;;;1.27;100.00
30897;BME280;64229;52.246;21.054;2022-12-07T05:35:54;99703.09;;;1.30;100.00
30897;BME280;64229;52.246;21.054;2022-12-07T05:38:19;99699.69;;;1.30;100.00
30897;BME280;64229;52.246;21.054;2022-12-07T05:40:45;99691.72;;;1.18;100.00
30897;BME280;64229;52.246;21.054;2022-12-07T05:43:10;99702.72;;;1.27;100.00
30897;BME280;64229;52.246;21.054;2022-12-07T05:45:35;99700.22;;;1.13;100.00
30897;BME280;64229;52.246;21.054;2022-12-07T05:48:01;99712.75;;;1.18;100.00
30897;BME280;64229;52.246;21.054;2022-12-07T05:50:26;99710.16;;;1.11;100.00
30897;BME280;64229;52.246;21.054;2022-12-07T05:52:52;99693.00;;;1.09;100.00
30897;BME280;64229;52.246;21.054;2022-12-07T05:55:18;99716.09;;;1.07;100.00
30897;BME280;64229;52.246;21.054;2022-12-07T05:57:43;99702.38;;;1.23;100.00
30897;BME280;64229;52.246;21.054;2022-12-07T06:00:28;99710.16;;;1.11;100.00
30897;BME280;64229;52.246;21.054;2022-12-07T06:02:54;99707.09;;;1.14;100.00
30897;BME280;64229;52.246;21.054;2022-12-07T06:05:19;99705.44;;;1.20;100.00
30897;BME280;64229;52.246;21.054;2022-12-07T06:07:44;99712.34;;;1.14;100.00
30897;BME280;64229;52.246;21.054;2022-12-07T06:10:10;99710.03;;;1.25;100.00
30897;BME280;64229;52.246;21.054;2022-12-07T06:12:35;99709.44;;;1.23;100.00
30897;BME280;64229;52.246;21.054;2022-12-07T06:15:00;99703.59;;;1.21;100.00
30897;BME280;64229;52.246;21.054;2022-12-07T06:17:26;99701.72;;;1.28;100.00
30897;BME280;64229;52.246;21.054;2022-12-07T06:19:52;99711.31;;;1.15;100.00
30897;BME280;64229;52.246;21.054;2022-12-07T06:22:17;99710.91;;;1.19;100.00
30897;BME280;64229;52.246;21.054;2022-12-07T06:24:43;99710.47;;;1.22;100.00
30897;BME280;64229;52.246;21.054;2022-12-07T06:27:09;99707.91;;;1.15;100.00
30897;BME280;64229;52.246;21.054;2022-12-07T06:29:35;99704.69;;;1.13;100.00
30897;BME280;64229;52.246;21.054;2022-12-07T06:32:00;99702.72;;;1.08;100.00
30897;BME280;64229;52.246;21.054;2022-12-07T06:34:26;99699.13;;;1.03;100.00
30897;BME280;64229;52.246;21.054;2022-12-07T06:36:52;99696.06;;;1.06;100.00
30897;BME280;64229;52.246;21.054;2022-12-07T06:39:22;99698.66;;;0.88;100.00
30897;BME280;64229;52.246;21.054;2022-12-07T06:41:49;99698.44;;;0.89;100.00
30897;BME280;64229;52.246;21.054;2022-12-07T06:44:16;99694.44;;;1.05;100.00
30897;BME280;64229;52.246;21.054;2022-12-07T06:46:42;99697.25;;;0.85;100.00
30897;BME280;64229;52.246;21.054;2022-12-07T06:49:07;99694.91;;;0.77;100.00
30897;BME280;64229;52.246;21.054;2022-12-07T06:51:33;99696.84;;;0.88;100.00
30897;BME280;64229;52.246;21.054;2022-12-07T06:54:02;99696.34;;;0.98;100.00
30897;BME280;64229;52.246;21.054;2022-12-07T06:56:27;99697.66;;;0.89;100.00
30897;BME280;64229;52.246;21.054;2022-12-07T06:58:53;99677.69;;;0.81;100.00
30897;BME280;64229;52.246;21.054;2022-12-07T07:01:19;99705.53;;;0.89;100.00
30897;BME280;64229;52.246;21.054;2022-12-07T07:03:45;99696.75;;;0.76;100.00
30897;BME280;64229;52.246;21.054;2022-12-07T07:06:11;99701.56;;;0.79;100.00
30897;BME280;64229;52.246;21.054;2022-12-07T07:08:38;99690.56;;;0.89;100.00
30897;BME280;64229;52.246;21.054;2022-12-07T07:11:04;99705.09;;;0.92;100.00
30897;BME280;64229;52.246;21.054;2022-12-07T07:13:30;99697.16;;;0.98;100.00
30897;BME280;64229;52.246;21.054;2022-12-07T07:15:55;99701.59;;;0.98;100.00
30897;BME280;64229;52.246;21.054;2022-12-07T07:18:21;99700.38;;;1.00;100.00
30897;BME280;64229;52.246;21.054;2022-12-07T07:20:47;99699.06;;;0.84;100.00
30897;BME280;64229;52.246;21.054;2022-12-07T07:23:12;99701.69;;;0.84;100.00
30897;BME280;64229;52.246;21.054;2022-12-07T07:25:37;99706.91;;;0.91;100.00
30897;BME280;64229;52.246;21.054;2022-12-07T07:28:04;99695.50;;;0.79;100.00
30897;BME280;64229;52.246;21.054;2022-12-07T07:30:29;99701.66;;;0.91;100.00
30897;BME280;64229;52.246;21.054;2022-12-07T07:32:59;99700.28;;;0.89;100.00
30897;BME280;64229;52.246;21.054;2022-12-07T07:35:25;99695.16;;;0.94;100.00
30897;BME280;64229;52.246;21.054;2022-12-07T07:37:51;99698.09;;;0.85;100.00
30897;BME280;64229;52.246;21.054;2022-12-07T07:40:16;99702.03;;;0.95;100.00
30897;BME280;64229;52.246;21.054;2022-12-07T07:42:42;99697.41;;;0.90;100.00
30897;BME280;64229;52.246;21.054;2022-12-07T07:45:07;99695.66;;;0.84;100.00
30897;BME280;64229;52.246;21.054;2022-12-07T07:47:33;99703.69;;;0.89;100.00
30897;BME280;64229;52.246;21.054;2022-12-07T07:49:58;99705.97;;;0.85;100.00
30897;BME280;64229;52.246;21.054;2022-12-07T07:52:24;99699.63;;;0.93;100.00
30897;BME280;64229;52.246;21.054;2022-12-07T07:54:49;99677.56;;;0.94;100.00
30897;BME280;64229;52.246;21.054;2022-12-07T07:57:16;99691.09;;;0.98;100.00
30897;BME280;64229;52.246;21.054;2022-12-07T07:59:41;99689.00;;;1.06;100.00
30897;BME280;64229;52.246;21.054;2022-12-07T08:02:12;99706.06;;;1.15;100.00
30897;BME280;64229;52.246;21.054;2022-12-07T08:04:38;99694.78;;;1.33;100.00
30897;BME280;64229;52.246;21.054;2022-12-07T08:07:04;99698.56;;;1.37;100.00
30897;BME280;64229;52.246;21.054;2022-12-07T08:09:29;99695.22;;;1.30;100.00
30897;BME280;64229;52.246;21.054;2022-12-07T08:11:54;99702.59;;;1.22;100.00
30897;BME280;64229;52.246;21.054;2022-12-07T08:14:20;99711.06;;;1.42;100.00
30897;BME280;64229;52.246;21.054;2022-12-07T08:16:45;99706.97;;;1.46;100.00
30897;BME280;64229;52.246;21.054;2022-12-07T08:19:10;99703.47;;;1.52;100.00
30897;BME280;64229;52.246;21.054;2022-12-07T08:21:37;99700.91;;;1.64;100.00
30897;BME280;64229;52.246;21.054;2022-12-07T08:24:02;99711.66;;;1.62;100.00
30897;BME280;64229;52.246;21.054;2022-12-07T08:26:28;99714.72;;;1.59;100.00
30897;BME280;64229;52.246;21.054;2022-12-07T08:28:53;99709.53;;;1.53;100.00
30897;BME280;64229;52.246;21.054;2022-12-07T08:31:18;99706.63;;;1.61;100.00
30897;BME280;64229;52.246;21.054;2022-12-07T08:33:46;99707.94;;;1.52;100.00
30897;BME280;64229;52.246;21.054;2022-12-07T08:36:12;99703.84;;;1.56;100.00
30897;BME280;64229;52.246;21.054;2022-12-07T08:38:39;99720.72;;;1.66;100.00
30897;BME280;64229;52.246;21.054;2022-12-07T08:41:06;99713.09;;;1.58;100.00
30897;BME280;64229;52.246;21.054;2022-12-07T08:43:32;99708.94;;;1.69;100.00
30897;BME280;64229;52.246;21.054;2022-12-07T08:46:13;99707.03;;;1.58;100.00
30897;BME280;64229;52.246;21.054;2022-12-07T08:49:05;99717.34;;;1.59;100.00
30897;BME280;64229;52.246;21.054;2022-12-07T08:51:32;99714.72;;;1.59;100.00
30897;BME280;64229;52.246;21.054;2022-12-07T08:54:00;99717.78;;;1.56;100.00
30897;BME280;64229;52.246;21.054;2022-12-07T08:56:26;99713.41;;;1.50;100.00
30897;BME280;64229;52.246;21.054;2022-12-07T08:58:52;99717.84;;;1.68;100.00
30897;BME280;64229;52.246;21.054;2022-12-07T09:01:18;99715.22;;;1.68;100.00
30897;BME280;64229;52.246;21.054;2022-12-07T09:03:43;99711.03;;;1.79;100.00
30897;BME280;64229;52.246;21.054;2022-12-07T09:06:08;99697.25;;;1.83;100.00
30897;BME280;64229;52.246;21.054;2022-12-07T09:08:41;99701.88;;;1.99;100.00
30897;BME280;64229;52.246;21.054;2022-12-07T09:11:07;99710.91;;;1.92;100.00
30897;BME280;64229;52.246;21.054;2022-12-07T09:13:33;99706.47;;;2.04;100.00
30897;BME280;64229;52.246;21.054;2022-12-07T09:15:58;99712.13;;;2.19;100.00
30897;BME280;64229;52.246;21.054;2022-12-07T09:18:23;99707.47;;;2.33;100.00
30897;BME280;64229;52.246;21.054;2022-12-07T09:20:50;99709.19;;;2.27;100.00
30897;BME280;64229;52.246;21.054;2022-12-07T09:23:15;99695.34;;;2.32;100.00
30897;BME280;64229;52.246;21.054;2022-12-07T09:25:41;99689.38;;;2.25;100.00
30897;BME280;64229;52.246;21.054;2022-12-07T09:28:06;99696.16;;;2.44;100.00
30897;BME280;64229;52.246;21.054;2022-12-07T09:30:31;99692.88;;;2.49;99.02
30897;BME280;64229;52.246;21.054;2022-12-07T09:32:57;99691.38;;;2.41;99.26
30897;BME280;64229;52.246;21.054;2022-12-07T09:35:23;99689.56;;;2.53;98.79
30897;BME280;64229;52.246;21.054;2022-12-07T09:37:49;99685.31;;;2.52;98.56
30897;BME280;64229;52.246;21.054;2022-12-07T09:40:16;99690.47;;;2.47;98.35
30897;BME280;64229;52.246;21.054;2022-12-07T09:42:46;99689.94;;;2.57;98.33
30897;BME280;64229;52.246;21.054;2022-12-07T09:45:19;99685.47;;;2.69;97.38
30897;BME280;64229;52.246;21.054;2022-12-07T09:47:46;99691.97;;;2.55;96.67
30897;BME280;64229;52.246;21.054;2022-12-07T09:50:18;99689.13;;;2.56;97.25
30897;BME280;64229;52.246;21.054;2022-12-07T09:52:45;99684.66;;;2.57;96.29
30897;BME280;64229;52.246;21.054;2022-12-07T09:55:15;99675.94;;;2.45;96.40
30897;BME280;64229;52.246;21.054;2022-12-07T09:57:42;99685.31;;;2.52;96.80
30897;BME280;64229;52.246;21.054;2022-12-07T10:00:17;99693.38;;;2.69;95.37
30897;BME280;64229;52.246;21.054;2022-12-07T10:05:19;99687.06;;;2.58;93.52
30897;BME280;64229;52.246;21.054;2022-12-07T10:07:47;99680.66;;;2.66;93.78
30897;BME280;64229;52.246;21.054;2022-12-07T10:10:18;99674.69;;;2.82;93.20
30897;BME280;64229;52.246;21.054;2022-12-07T10:15:54;99671.59;;;2.85;92.34
30897;BME280;64229;52.246;21.054;2022-12-07T10:21:10;99672.63;;;3.08;91.26
30897;BME280;64229;52.246;21.054;2022-12-07T10:23:37;99665.66;;;3.02;91.19
30897;BME280;64229;52.246;21.054;2022-12-07T10:28:50;99673.22;;;3.10;89.98
30897;BME280;64229;52.246;21.054;2022-12-07T10:31:18;99672.63;;;2.73;89.32
30897;BME280;64229;52.246;21.054;2022-12-07T10:36:19;99676.38;;;2.53;91.31
30897;BME280;64229;52.246;21.054;2022-12-07T10:39:15;99663.81;;;2.55;90.93
30897;BME280;64229;52.246;21.054;2022-12-07T10:41:56;99672.41;;;2.74;90.05
30897;BME280;64229;52.246;21.054;2022-12-07T10:44:28;99672.06;;;2.71;89.61
30897;BME280;64229;52.246;21.054;2022-12-07T10:47:03;99676.06;;;2.73;89.59
30897;BME280;64229;52.246;21.054;2022-12-07T10:52:21;99667.81;;;2.81;89.47
30897;BME280;64229;52.246;21.054;2022-12-07T10:55:15;99667.09;;;2.51;90.49
30897;BME280;64229;52.246;21.054;2022-12-07T10:58:27;99664.84;;;2.78;90.02
30897;BME280;64229;52.246;21.054;2022-12-07T11:11:56;99659.91;;;2.93;89.05
30897;BME280;64229;52.246;21.054;2022-12-07T11:14:56;99660.72;;;2.94;89.17
30897;BME280;64229;52.246;21.054;2022-12-07T11:22:47;99665.28;;;2.86;89.03
30897;BME280;64229;52.246;21.054;2022-12-07T11:28:06;99663.03;;;2.78;89.48
30897;BME280;64229;52.246;21.054;2022-12-07T11:30:42;99654.41;;;2.71;90.13
30897;BME280;64229;52.246;21.054;2022-12-07T11:33:44;99653.16;;;2.74;90.01
30897;BME280;64229;52.246;21.054;2022-12-07T11:36:24;99660.16;;;2.80;90.05
30897;BME280;64229;52.246;21.054;2022-12-07T11:38:58;99660.72;;;2.82;89.47
30897;BME280;64229;52.246;21.054;2022-12-07T11:41:32;99652.13;;;2.75;89.34
30897;BME280;64229;52.246;21.054;2022-12-07T11:44:07;99655.22;;;2.83;89.41
30897;BME280;64229;52.246;21.054;2022-12-07T11:50:01;99652.81;;;2.82;89.66
30897;BME280;64229;52.246;21.054;2022-12-07T11:52:27;99649.25;;;2.76;89.90
30897;BME280;64229;52.246;21.054;2022-12-07T11:54:54;99639.88;;;2.57;90.56
30897;BME280;64229;52.246;21.054;2022-12-07T11:57:41;99639.88;;;2.80;89.91
30897;BME280;64229;52.246;21.054;2022-12-07T12:00:14;99647.78;;;2.92;90.73
30897;BME280;64229;52.246;21.054;2022-12-07T12:02:48;99657.75;;;3.02;90.13
30897;BME280;64229;52.246;21.054;2022-12-07T12:05:24;99652.13;;;3.10;89.66
30897;BME280;64229;52.246;21.054;2022-12-07T12:08:03;99636.19;;;2.93;89.93
30897;BME280;64229;52.246;21.054;2022-12-07T12:10:52;99645.13;;;3.04;88.77
30897;BME280;64229;52.246;21.054;2022-12-07T12:13:31;99638.25;;;3.03;89.16
30897;BME280;64229;52.246;21.054;2022-12-07T12:21:39;99632.97;;;3.03;87.93
30897;BME280;64229;52.246;21.054;2022-12-07T12:24:13;99612.13;;;2.89;89.60
30897;BME280;64229;52.246;21.054;2022-12-07T12:26:49;99617.84;;;2.86;91.06
30897;BME280;64229;52.246;21.054;2022-12-07T12:32:05;99622.41;;;2.32;95.99
30897;BME280;64229;52.246;21.054;2022-12-07T12:34:38;99628.63;;;2.38;96.11
30897;BME280;64229;52.246;21.054;2022-12-07T12:42:50;99615.09;;;2.35;96.12
30897;BME280;64229;52.246;21.054;2022-12-07T12:45:22;99609.59;;;2.24;97.36
30897;BME280;64229;52.246;21.054;2022-12-07T12:50:41;99612.81;;;2.26;97.47
30897;BME280;64229;52.246;21.054;2022-12-07T12:53:17;99616.25;;;2.50;97.12
30897;BME280;64229;52.246;21.054;2022-12-07T13:00:43;99614.19;;;2.41;96.96
30897;BME280;64229;52.246;21.054;2022-12-07T13:03:26;99609.50;;;2.43;97.51
30897;BME280;64229;52.246;21.054;2022-12-07T13:08:53;99599.97;;;2.30;98.05
30897;BME280;64229;52.246;21.054;2022-12-07T13:17:01;99611.53;;;2.29;97.23
30897;BME280;64229;52.246;21.054;2022-12-07T13:24:58;99599.31;;;2.35;93.14
30897;BME280;64229;52.246;21.054;2022-12-07T13:27:27;99594.84;;;2.35;92.87
30897;BME280;64229;52.246;21.054;2022-12-07T13:29:54;99604.75;;;2.21;94.06
30897;BME280;64229;52.246;21.054;2022-12-07T13:32:27;99597.00;;;2.38;93.25
30897;BME280;64229;52.246;21.054;2022-12-07T13:34:53;99604.91;;;2.26;93.19
30897;BME280;64229;52.246;21.054;2022-12-07T13:37:27;99602.34;;;2.08;94.43
30897;BME280;64229;52.246;21.054;2022-12-07T13:39:57;99601.06;;;1.99;95.87
30897;BME280;64229;52.246;21.054;2022-12-07T13:44:51;99606.94;;;2.13;95.65
30897;BME280;64229;52.246;21.054;2022-12-07T13:47:36;99611.72;;;2.04;96.58
30897;BME280;64229;52.246;21.054;2022-12-07T13:52:47;99615.47;;;1.96;97.89
30897;BME280;64229;52.246;21.054;2022-12-07T13:55:16;99610.81;;;2.10;97.17
30897;BME280;64229;52.246;21.054;2022-12-07T13:57:47;99611.59;;;1.99;97.83
30897;BME280;64229;52.246;21.054;2022-12-07T14:00:20;99612.03;;;1.96;98.42
30897;BME280;64229;52.246;21.054;2022-12-07T14:06:04;99614.34;;;2.04;97.80
30897;BME280;64229;52.246;21.054;2022-12-07T14:08:30;99617.66;;;1.99;97.52
30897;BME280;64229;52.246;21.054;2022-12-07T14:10:56;99615.22;;;1.86;99.17
30897;BME280;64229;52.246;21.054;2022-12-07T14:19:43;99613.66;;;1.67;100.00
30897;BME280;64229;52.246;21.054;2022-12-07T14:24:44;99617.19;;;1.61;99.65
30897;BME280;64229;52.246;21.054;2022-12-07T14:27:18;99617.38;;;1.59;99.84
30897;BME280;64229;52.246;21.054;2022-12-07T14:29:44;99627.66;;;1.49;99.99
30897;BME280;64229;52.246;21.054;2022-12-07T14:32:22;99609.97;;;1.38;100.00
30897;BME280;64229;52.246;21.054;2022-12-07T14:34:59;99613.28;;;1.33;100.00
30897;BME280;64229;52.246;21.054;2022-12-07T14:37:26;99618.47;;;1.40;100.00
30897;BME280;64229;52.246;21.054;2022-12-07T14:39:51;99615.44;;;1.36;100.00
30897;BME280;64229;52.246;21.054;2022-12-07T14:42:17;99605.59;;;1.32;100.00
30897;BME280;64229;52.246;21.054;2022-12-07T14:44:43;99621.31;;;1.38;100.00
30897;BME280;64229;52.246;21.054;2022-12-07T14:47:10;99621.97;;;1.34;100.00
30897;BME280;64229;52.246;21.054;2022-12-07T14:49:36;99629.09;;;1.45;99.65
30897;BME280;64229;52.246;21.054;2022-12-07T14:52:01;99610.13;;;1.43;99.48
30897;BME280;64229;52.246;21.054;2022-12-07T14:54:30;99620.34;;;1.33;100.00
30897;BME280;64229;52.246;21.054;2022-12-07T14:56:56;99620.75;;;1.18;100.00
30897;BME280;64229;52.246;21.054;2022-12-07T14:59:21;99621.16;;;1.15;100.00
30897;BME280;64229;52.246;21.054;2022-12-07T15:01:46;99609.84;;;1.14;100.00